Snoqualmie River: Carnation station

back to: Snoqualmie river
Carnation station Summary - (NOAA Hydrograph: CRNW1)
flood stage: 54.0 ft
Latest reading:
Wed08/12 10:15 pm 45.68 ft 831 cfs (steady)
Past 24hr max:
Tue08/11 10:45 pm 45.69 ft 842 cfs
Forecasted crests: (published Wed 08/12/20 01:13 pm)
Wed08/19 05:00 am 45.56 ft 709 cfs
Thu08/20 11:00 am 45.56 ft 711 cfs
Fri08/21 11:00 am 45.57 ft 719 cfs
Fri08/21 11:00 pm 45.57 ft 720 cfs

Carnation station Details

Latest Readings

Last 100 Readings:
Wed08/12 10:15 pm 45.68 ft 831 cfs
Wed08/12 10:00 pm 45.68 ft 831 cfs
Wed08/12 09:45 pm 45.68 ft 831 cfs
Wed08/12 09:30 pm 45.68 ft 831 cfs
Wed08/12 09:15 pm 45.68 ft 831 cfs
Wed08/12 09:00 pm 45.67 ft 821 cfs
Wed08/12 08:45 pm 45.67 ft 821 cfs
Wed08/12 08:30 pm 45.67 ft 821 cfs
Wed08/12 08:15 pm 45.67 ft 821 cfs
Wed08/12 08:00 pm 45.67 ft 821 cfs
Wed08/12 07:45 pm 45.67 ft 821 cfs
Wed08/12 07:30 pm 45.67 ft 821 cfs
Wed08/12 07:15 pm 45.67 ft 821 cfs
Wed08/12 07:00 pm 45.67 ft 821 cfs
Wed08/12 06:45 pm 45.67 ft 821 cfs
Wed08/12 06:30 pm 45.67 ft 821 cfs
Wed08/12 06:15 pm 45.66 ft 810 cfs
Wed08/12 06:00 pm 45.66 ft 810 cfs
Wed08/12 05:45 pm 45.66 ft 810 cfs
Wed08/12 05:30 pm 45.66 ft 810 cfs
Wed08/12 05:15 pm 45.66 ft 810 cfs
Wed08/12 05:00 pm 45.66 ft 810 cfs
Wed08/12 04:45 pm 45.66 ft 810 cfs
Wed08/12 04:30 pm 45.66 ft 810 cfs
Wed08/12 04:15 pm 45.67 ft 821 cfs
Wed08/12 04:00 pm 45.67 ft 821 cfs
Wed08/12 03:45 pm 45.66 ft 810 cfs
Wed08/12 03:30 pm 45.64 ft 789 cfs
Wed08/12 03:15 pm 45.66 ft 810 cfs
Wed08/12 03:00 pm 45.66 ft 810 cfs
Wed08/12 02:45 pm 45.63 ft 778 cfs
Wed08/12 02:30 pm 45.63 ft 778 cfs
Wed08/12 02:15 pm 45.63 ft 778 cfs
Wed08/12 02:00 pm 45.64 ft 789 cfs
Wed08/12 01:45 pm 45.61 ft 758 cfs
Wed08/12 01:30 pm 45.65 ft 799 cfs
Wed08/12 01:15 pm 45.63 ft 778 cfs
Wed08/12 01:00 pm 45.61 ft 758 cfs
Wed08/12 12:45 pm 45.67 ft 821 cfs
Wed08/12 12:30 pm 45.63 ft 778 cfs
Wed08/12 12:15 pm 45.63 ft 778 cfs
Wed08/12 12:00 pm 45.65 ft 799 cfs
Wed08/12 11:45 am 45.65 ft 799 cfs
Wed08/12 11:30 am 45.64 ft 789 cfs
Wed08/12 11:15 am 45.65 ft 799 cfs
Wed08/12 11:00 am 45.63 ft 778 cfs
Wed08/12 10:45 am 45.64 ft 789 cfs
Wed08/12 10:30 am 45.68 ft 831 cfs
Wed08/12 10:15 am 45.65 ft 799 cfs
Wed08/12 10:00 am 45.65 ft 799 cfs
Wed08/12 09:45 am 45.67 ft 821 cfs
Wed08/12 09:30 am 45.68 ft 831 cfs
Wed08/12 09:15 am 45.68 ft 831 cfs
Wed08/12 09:00 am 45.68 ft 831 cfs
Wed08/12 08:45 am 45.68 ft 831 cfs
Wed08/12 08:30 am 45.69 ft 842 cfs
Wed08/12 08:15 am 45.69 ft 842 cfs
Wed08/12 08:00 am 45.69 ft 842 cfs
Wed08/12 07:45 am 45.69 ft 842 cfs
Wed08/12 07:30 am 45.69 ft 842 cfs
Wed08/12 07:15 am 45.69 ft 842 cfs
Wed08/12 07:00 am 45.69 ft 842 cfs
Wed08/12 06:45 am 45.69 ft 842 cfs
Wed08/12 06:30 am 45.69 ft 842 cfs
Wed08/12 06:15 am 45.69 ft 842 cfs
Wed08/12 06:00 am 45.69 ft 842 cfs
Wed08/12 05:45 am 45.69 ft 842 cfs
Wed08/12 05:30 am 45.69 ft 842 cfs
Wed08/12 05:15 am 45.69 ft 842 cfs
Wed08/12 05:00 am 45.69 ft 842 cfs
Wed08/12 04:45 am 45.69 ft 842 cfs
Wed08/12 04:30 am 45.69 ft 842 cfs
Wed08/12 04:15 am 45.69 ft 842 cfs
Wed08/12 04:00 am 45.69 ft 842 cfs
Wed08/12 03:45 am 45.69 ft 842 cfs
Wed08/12 03:30 am 45.69 ft 842 cfs
Wed08/12 03:15 am 45.69 ft 842 cfs
Wed08/12 03:00 am 45.69 ft 842 cfs
Wed08/12 02:45 am 45.69 ft 842 cfs
Wed08/12 02:30 am 45.69 ft 842 cfs
Wed08/12 02:15 am 45.69 ft 842 cfs
Wed08/12 02:00 am 45.69 ft 842 cfs
Wed08/12 01:45 am 45.69 ft 842 cfs
Wed08/12 01:30 am 45.69 ft 842 cfs
Wed08/12 01:15 am 45.69 ft 842 cfs
Wed08/12 01:00 am 45.69 ft 842 cfs
Wed08/12 12:45 am 45.69 ft 842 cfs
Wed08/12 12:30 am 45.69 ft 842 cfs
Wed08/12 12:15 am 45.69 ft 842 cfs
Wed08/12 12:00 am 45.69 ft 842 cfs
Tue08/11 11:45 pm 45.69 ft 842 cfs
Tue08/11 11:30 pm 45.68 ft 831 cfs
Tue08/11 11:15 pm 45.68 ft 831 cfs
Tue08/11 11:00 pm 45.69 ft 842 cfs
Tue08/11 10:45 pm 45.69 ft 842 cfs
Tue08/11 10:30 pm 45.66 ft 810 cfs
Tue08/11 10:15 pm 45.66 ft 810 cfs
Tue08/11 10:00 pm 45.64 ft 789 cfs
Tue08/11 09:45 pm 45.66 ft 810 cfs
Tue08/11 09:30 pm 45.65 ft 799 cfs

Latest Forecasts

Currently Forecasted Readings:
Wed08/12 05:00 pm 45.62 ft 773 cfs
Wed08/12 11:00 pm 45.62 ft 768 cfs
Thu08/13 05:00 am 45.62 ft 763 cfs
Thu08/13 11:00 am 45.61 ft 759 cfs
Thu08/13 05:00 pm 45.61 ft 753 cfs
Thu08/13 11:00 pm 45.6 ft 748 cfs
Fri08/14 05:00 am 45.6 ft 744 cfs
Fri08/14 11:00 am 45.59 ft 740 cfs
Fri08/14 05:00 pm 45.59 ft 734 cfs
Fri08/14 11:00 pm 45.58 ft 730 cfs
Sat08/15 05:00 am 45.58 ft 727 cfs
Sat08/15 11:00 am 45.58 ft 723 cfs
Sat08/15 05:00 pm 45.57 ft 720 cfs
Sat08/15 11:00 pm 45.57 ft 718 cfs
Sun08/16 05:00 am 45.57 ft 718 cfs
Sun08/16 11:00 am 45.57 ft 717 cfs
Sun08/16 05:00 pm 45.57 ft 715 cfs
Sun08/16 11:00 pm 45.57 ft 714 cfs
Mon08/17 05:00 am 45.57 ft 714 cfs
Mon08/17 11:00 am 45.57 ft 713 cfs
Mon08/17 05:00 pm 45.56 ft 710 cfs
Mon08/17 11:00 pm 45.56 ft 708 cfs
Tue08/18 05:00 am 45.56 ft 708 cfs
Tue08/18 11:00 am 45.56 ft 708 cfs
Tue08/18 05:00 pm 45.56 ft 707 cfs
Tue08/18 11:00 pm 45.56 ft 708 cfs
Wed08/19 05:00 am 45.56 ft 709 cfs
Wed08/19 11:00 am 45.56 ft 708 cfs
Wed08/19 05:00 pm 45.56 ft 708 cfs
Wed08/19 11:00 pm 45.56 ft 709 cfs
Thu08/20 05:00 am 45.56 ft 710 cfs
Thu08/20 11:00 am 45.56 ft 711 cfs
Thu08/20 05:00 pm 45.56 ft 711 cfs
Thu08/20 11:00 pm 45.57 ft 712 cfs
Fri08/21 05:00 am 45.57 ft 716 cfs
Fri08/21 11:00 am 45.57 ft 719 cfs
Fri08/21 05:00 pm 45.57 ft 719 cfs
Fri08/21 11:00 pm 45.57 ft 720 cfs
Sat08/22 05:00 am 45.57 ft 720 cfs

Snoqualmie River flood gauge data supplied by the
National Weather Service Northwest River Forecast Center.

Sign up for Floodzilla alerts.